Time;durP1;ratioP1;P1;durP2;ratioP2;P2;SDS_P1;SDS_P2;PMS_P1;PMS_P2;Temp;Humidity;BMP_temperature;BMP_pressure;BME280_temperature;BME280_humidity;BME280_pressure;Samples;Min_cycle;Max_cycle;Signal;HPM_P1;HPM_P2
2021/12/20 00:00:13;;;;;;;23.13;9.48;;;;;;;5.25;100.00;101109.16;4954570;28;20034;-90
2021/12/20 00:02:41;;;;;;;22.63;9.15;;;;;;;5.37;100.00;101101.31;4971195;28;20080;-90
2021/12/20 00:05:08;;;;;;;22.67;9.10;;;;;;;4.25;100.00;100930.16;4971239;28;20062;-90
2021/12/20 00:07:34;;;;;;;25.33;10.90;;;;;;;4.41;100.00;100950.47;4969207;28;20094;-90
2021/12/20 00:09:59;;;;;;;21.05;8.73;;;;;;;5.21;100.00;101091.56;4974629;28;20487;-90
2021/12/20 00:12:25;;;;;;;25.15;9.80;;;;;;;5.17;100.00;101092.41;4970739;28;20384;-90
2021/12/20 00:14:50;;;;;;;24.67;9.07;;;;;;;4.94;100.00;101065.00;4971251;28;20394;-90
2021/12/20 00:17:16;;;;;;;23.15;9.02;;;;;;;5.06;100.00;101062.47;4970066;28;20170;-90
2021/12/20 00:19:42;;;;;;;27.83;11.13;;;;;;;4.97;100.00;101049.25;4954059;28;20103;-90
2021/12/20 00:22:07;;;;;;;31.92;9.57;;;;;;;5.00;100.00;101074.72;4951720;28;20114;-90
2021/12/20 00:24:33;;;;;;;27.17;8.93;;;;;;;5.20;100.00;101088.91;4963559;28;20031;-90
2021/12/20 00:26:59;;;;;;;28.35;10.27;;;;;;;5.16;100.00;101081.84;4968838;28;20475;-90
2021/12/20 00:29:24;;;;;;;30.30;9.23;;;;;;;4.88;100.00;101045.63;4979082;28;20085;-90
2021/12/20 00:31:50;;;;;;;29.40;10.73;;;;;;;5.14;100.00;101079.22;4968679;28;20065;-90
2021/12/20 00:34:15;;;;;;;26.98;10.70;;;;;;;5.21;100.00;101088.94;4953522;28;20030;-90
2021/12/20 00:36:41;;;;;;;20.60;9.75;;;;;;;5.18;100.00;101083.63;4947597;28;20038;-90
2021/12/20 00:41:51;;;;;;;29.08;10.77;;;;;;;4.50;100.00;100962.84;4971500;28;20085;-90
2021/12/20 00:44:16;;;;;;;23.55;9.10;;;;;;;4.98;100.00;101040.44;4971505;28;20538;-90
2021/12/20 00:46:42;;;;;;;22.33;9.43;;;;;;;4.96;100.00;101042.19;4965927;28;20663;-90
2021/12/20 00:49:07;;;;;;;27.40;9.23;;;;;;;5.13;100.00;101072.19;4968974;28;20031;-90
2021/12/20 00:51:36;;;;;;;28.10;10.05;;;;;;;4.47;100.00;100960.16;4969586;28;20561;-90
2021/12/20 00:54:01;;;;;;;22.98;8.63;;;;;;;5.12;100.00;101073.03;4970136;28;20042;-90
2021/12/20 00:56:27;;;;;;;24.98;10.13;;;;;;;5.00;100.00;101056.28;4978109;28;20053;-90
2021/12/20 00:58:53;;;;;;;27.30;9.65;;;;;;;4.52;100.00;100966.34;4989627;28;20489;-90
2021/12/20 01:01:19;;;;;;;27.63;11.35;;;;;;;5.03;100.00;101065.09;4981549;28;20499;-90
2021/12/20 01:03:45;;;;;;;26.77;10.65;;;;;;;5.00;100.00;101062.44;4955159;28;20031;-90
2021/12/20 01:06:13;;;;;;;25.60;10.57;;;;;;;4.89;100.00;101029.81;4950307;28;20031;-90
2021/12/20 01:08:41;;;;;;;25.63;10.52;;;;;;;4.58;100.00;100985.69;4951032;29;20183;-90
2021/12/20 01:11:06;;;;;;;31.08;10.93;;;;;;;4.88;100.00;101067.63;4962657;28;20070;-90
2021/12/20 01:13:38;;;;;;;31.38;12.02;;;;;;;4.91;100.00;101064.13;4947976;28;20144;-90
2021/12/20 01:16:06;;;;;;;30.25;10.73;;;;;;;4.94;100.00;101054.47;4975621;28;20434;-90
2021/12/20 01:18:31;;;;;;;26.85;11.73;;;;;;;4.14;100.00;100931.84;4981872;28;20857;-90
2021/12/20 01:20:57;;;;;;;26.02;10.38;;;;;;;4.81;100.00;101044.72;4952190;28;20102;-90
2021/12/20 01:23:22;;;;;;;30.92;10.85;;;;;;;4.72;100.00;101036.75;4971396;28;20038;-90
2021/12/20 01:25:48;;;;;;;30.00;12.45;;;;;;;4.95;100.00;101056.25;4954081;28;20081;-90
2021/12/20 01:28:14;;;;;;;42.17;10.98;;;;;;;4.82;100.00;101021.88;4969351;28;20019;-90
2021/12/20 01:30:43;;;;;;;40.38;10.82;;;;;;;4.48;100.00;100962.81;4960435;28;20054;-90
2021/12/20 01:33:11;;;;;;;32.63;10.35;;;;;;;4.90;100.00;101052.69;4953518;28;20058;-90
2021/12/20 01:35:37;;;;;;;35.30;11.35;;;;;;;4.83;100.00;101048.25;4952496;28;20509;-90
2021/12/20 01:38:04;;;;;;;38.05;11.77;;;;;;;4.41;100.00;100966.28;4965124;28;20047;-90
2021/12/20 01:40:29;;;;;;;29.25;10.70;;;;;;;4.75;100.00;101031.50;4976804;28;20026;-90
2021/12/20 01:42:57;;;;;;;37.10;11.60;;;;;;;4.82;100.00;101049.13;4944707;28;20039;-90
2021/12/20 01:45:24;;;;;;;43.40;11.93;;;;;;;4.67;100.00;101022.66;4969976;28;20220;-90
2021/12/20 01:48:01;;;;;;;41.13;11.25;;;;;;;4.74;100.00;101019.22;4950011;28;20089;-90
2021/12/20 01:50:41;;;;;;;28.98;11.15;;;;;;;4.51;100.00;101002.34;4968018;28;20031;-90
2021/12/20 01:53:16;;;;;;;31.42;10.75;;;;;;;4.83;100.00;101032.44;4969335;28;20026;-90
2021/12/20 01:55:42;;;;;;;32.55;10.63;;;;;;;4.44;100.00;100954.88;4953935;28;20034;-90
2021/12/20 01:58:07;;;;;;;29.13;10.23;;;;;;;4.44;100.00;100971.56;4953594;28;20411;-90
2021/12/20 02:00:34;;;;;;;36.22;10.38;;;;;;;4.37;100.00;100943.41;4973532;28;20031;-90
2021/12/20 02:03:02;;;;;;;29.33;10.95;;;;;;;4.70;100.00;101012.16;4957517;28;20031;-90
2021/12/20 02:08:13;;;;;;;29.23;9.88;;;;;;;5.02;100.00;101042.25;4973540;28;20546;-90
2021/12/20 02:10:40;;;;;;;26.08;10.07;;;;;;;4.61;100.00;100976.94;4970775;28;20117;-90
2021/12/20 02:13:05;;;;;;;26.73;10.65;;;;;;;4.88;100.00;101028.06;4957213;28;20026;-90
2021/12/20 02:15:31;;;;;;;29.67;10.63;;;;;;;4.81;100.00;101010.44;4957592;28;20081;-90
2021/12/20 02:17:56;;;;;;;36.13;12.90;;;;;;;4.93;100.00;101023.72;4955856;28;20027;-90
2021/12/20 02:20:26;;;;;;;32.92;10.13;;;;;;;4.71;100.00;100982.28;4957303;28;20114;-90
2021/12/20 02:22:57;;;;;;;28.67;10.73;;;;;;;5.01;100.00;101031.66;4973402;28;20667;-90
2021/12/20 02:25:25;;;;;;;26.60;10.30;;;;;;;5.10;100.00;101048.44;4969817;28;20032;-90
2021/12/20 02:27:50;;;;;;;26.30;10.02;;;;;;;5.02;100.00;101015.88;4937109;29;20046;-90
2021/12/20 02:30:41;;;;;;;26.02;9.88;;;;;;;5.02;100.00;101030.81;4962322;28;20034;-90
2021/12/20 02:38:37;;;;;;;28.48;9.82;;;;;;;4.95;100.00;101024.63;4974050;28;20117;-90
2021/12/20 02:41:09;;;;;;;34.58;10.88;;;;;;;5.00;100.00;101027.25;4956594;28;20034;-90
2021/12/20 02:43:40;;;;;;;28.43;9.73;;;;;;;4.97;100.00;101014.06;4973853;28;20077;-90
2021/12/20 02:46:23;;;;;;;30.25;9.68;;;;;;;4.99;100.00;101026.38;4956289;28;20038;-90
2021/12/20 02:48:49;;;;;;;;;;;;;;;4.97;100.00;101014.06;4953599;28;20058;-90
2021/12/20 02:51:14;;;;;;;28.58;9.60;;;;;;;4.88;100.00;101001.72;4972652;28;20381;-90
2021/12/20 02:53:39;;;;;;;38.15;10.63;;;;;;;4.95;100.00;101024.63;4971726;28;20026;-90
2021/12/20 02:56:05;;;;;;;24.98;9.07;;;;;;;4.66;100.00;100968.19;4972617;28;20034;-90
2021/12/20 02:58:30;;;;;;;32.55;10.75;;;;;;;4.75;100.00;100985.81;4955628;28;20031;-90
2021/12/20 03:00:56;;;;;;;29.38;11.38;;;;;;;4.91;100.00;100991.19;4971729;28;20041;-89
2021/12/20 03:03:23;;;;;;;21.10;9.50;;;;;;;4.76;100.00;100959.47;4956882;28;20490;-90
2021/12/20 03:05:49;;;;;;;25.48;11.15;;;;;;;4.78;100.00;100968.28;4972009;28;20458;-90
2021/12/20 03:08:21;;;;;;;29.25;9.43;;;;;;;4.80;100.00;100984.97;4956404;28;20058;-91
2021/12/20 03:10:47;;;;;;;29.77;10.20;;;;;;;4.72;100.00;100977.91;4968356;28;20027;-90
2021/12/20 03:13:13;;;;;;;25.42;10.23;;;;;;;4.89;100.00;101014.00;4972402;28;20023;-90
2021/12/20 03:15:39;;;;;;;26.30;9.65;;;;;;;4.87;100.00;101010.50;4973365;28;20085;-90
2021/12/20 03:18:04;;;;;;;25.70;9.20;;;;;;;4.78;100.00;100984.09;4956942;28;20475;-90
2021/12/20 03:20:30;;;;;;;25.58;10.48;;;;;;;4.58;100.00;100985.69;4955139;28;20027;-90
2021/12/20 03:22:55;;;;;;;34.08;9.95;;;;;;;4.63;100.00;101010.31;4956048;28;20483;-90
2021/12/20 03:25:21;;;;;;;24.80;9.32;;;;;;;4.59;100.00;100998.03;4971729;28;20122;-90
2021/12/20 03:27:46;;;;;;;33.00;10.60;;;;;;;4.33;100.00;100956.56;4974547;28;20516;-90
2021/12/20 03:30:14;;;;;;;22.77;8.65;;;;;;;4.46;100.00;100975.09;4955028;28;20089;-90
2021/12/20 03:32:39;;;;;;;26.02;9.73;;;;;;;3.86;100.00;100885.09;4967399;28;20058;-90
2021/12/20 03:35:06;;;;;;;24.63;9.43;;;;;;;4.00;100.00;100902.75;4967974;28;20054;-90
2021/12/20 03:37:31;;;;;;;20.67;8.80;;;;;;;3.83;100.00;100866.66;4973176;28;20026;-90
2021/12/20 03:39:58;;;;;;;23.73;10.35;;;;;;;4.57;100.00;100997.13;4971513;28;21129;-90
2021/12/20 03:42:27;;;;;;;20.75;7.85;;;;;;;4.54;100.00;100989.22;4955971;28;20037;-90
2021/12/20 03:44:52;;;;;;;21.42;10.15;;;;;;;4.22;100.00;100951.19;4971273;28;20030;-90
2021/12/20 03:47:17;;;;;;;25.92;9.93;;;;;;;3.85;100.00;100881.63;4955551;28;20038;-90
2021/12/20 03:49:43;;;;;;;24.15;10.05;;;;;;;4.33;100.00;100962.72;4970520;28;20026;-90
2021/12/20 03:52:10;;;;;;;28.25;9.88;;;;;;;4.53;100.00;100987.41;4944444;28;20030;-90
2021/12/20 03:54:36;;;;;;;17.70;8.55;;;;;;;4.46;100.00;100969.84;4955468;28;20125;-90
2021/12/20 03:57:03;;;;;;;18.20;8.95;;;;;;;4.53;100.00;100984.78;4954744;28;20045;-90
2021/12/20 03:59:29;;;;;;;20.67;8.80;;;;;;;3.98;100.00;100885.22;4972369;28;20034;-90
2021/12/20 04:01:56;;;;;;;19.65;8.85;;;;;;;4.44;100.00;100976.84;4972260;28;20118;-90
2021/12/20 04:04:22;;;;;;;22.73;9.57;;;;;;;4.42;100.00;100978.56;4971252;28;20126;-90
2021/12/20 04:06:48;;;;;;;21.73;8.40;;;;;;;4.48;100.00;100988.28;4971110;28;20128;-90
2021/12/20 04:09:13;;;;;;;17.90;7.88;;;;;;;4.48;100.00;100986.50;4971141;28;20022;-90
2021/12/20 04:11:40;;;;;;;21.33;9.57;;;;;;;4.38;100.00;100971.53;4970742;28;20376;-90
2021/12/20 04:14:06;;;;;;;19.95;9.15;;;;;;;4.41;100.00;100954.84;4963029;28;20037;-90
2021/12/20 04:16:32;;;;;;;17.30;8.00;;;;;;;4.41;100.00;100955.75;4955267;28;20474;-90
2021/12/20 04:18:58;;;;;;;21.25;10.05;;;;;;;4.25;100.00;100930.16;4970659;28;20057;-89
2021/12/20 04:21:24;;;;;;;26.85;9.57;;;;;;;4.54;100.00;100994.47;4955010;28;20474;-90
2021/12/20 04:23:51;;;;;;;32.88;10.27;;;;;;;4.55;100.00;100984.78;4970691;28;20420;-90
2021/12/20 04:26:16;;;;;;;22.40;8.88;;;;;;;4.53;100.00;100992.69;4981506;28;20030;-90
2021/12/20 04:28:42;;;;;;;19.15;9.68;;;;;;;4.63;100.00;100983.97;4968699;28;20451;-90
2021/12/20 04:31:08;;;;;;;34.20;9.65;;;;;;;4.39;100.00;100936.41;4970706;28;20122;-90
2021/12/20 04:33:34;;;;;;;19.63;8.90;;;;;;;4.48;100.00;100973.34;4970660;28;20022;-90
2021/12/20 04:36:00;;;;;;;16.88;8.52;;;;;;;4.55;100.00;100985.69;4971224;28;20022;-90
2021/12/20 04:38:28;;;;;;;15.38;7.22;;;;;;;4.66;100.00;100996.31;4969514;28;20062;-90
2021/12/20 04:40:54;;;;;;;18.25;7.35;;;;;;;4.59;100.00;100982.22;4955111;28;20414;-90
2021/12/20 04:43:21;;;;;;;23.17;8.25;;;;;;;4.63;100.00;101005.06;4970929;28;20410;-90
2021/12/20 04:45:46;;;;;;;17.13;7.65;;;;;;;4.53;100.00;100982.16;4972580;28;20030;-90
2021/12/20 04:48:12;;;;;;;18.35;8.48;;;;;;;4.38;100.00;100966.25;4974980;28;20026;-90
2021/12/20 04:50:38;;;;;;;14.23;6.88;;;;;;;4.65;100.00;100992.78;4970436;28;20479;-90
2021/12/20 04:53:05;;;;;;;20.52;7.97;;;;;;;4.62;100.00;100994.50;4954060;28;20027;-90
2021/12/20 04:55:31;;;;;;;14.98;8.13;;;;;;;4.27;100.00;100936.31;4955012;28;20450;-90
2021/12/20 04:57:58;;;;;;;18.35;7.50;;;;;;;4.59;100.00;100999.75;4952538;29;20031;-90
2021/12/20 05:00:29;;;;;;;18.42;7.57;;;;;;;4.53;100.00;100983.94;4969672;28;20560;-90
2021/12/20 05:02:55;;;;;;;20.08;8.48;;;;;;;4.63;100.00;100996.28;4969828;28;20026;-90
2021/12/20 05:05:21;;;;;;;27.88;10.77;;;;;;;4.34;100.00;100938.13;4970710;28;20063;-90
2021/12/20 05:07:48;;;;;;;30.67;11.00;;;;;;;4.47;100.00;100966.31;4973965;28;20136;-90
2021/12/20 05:10:25;;;;;;;19.50;9.82;;;;;;;4.60;100.00;100983.06;4969325;28;20509;-90
2021/12/20 05:12:52;;;;;;;28.98;9.75;;;;;;;4.48;100.00;100961.94;4954496;28;20161;-90
2021/12/20 05:15:18;;;;;;;20.58;10.25;;;;;;;4.43;100.00;100953.97;4970332;28;20023;-90
2021/12/20 05:17:43;;;;;;;26.73;10.30;;;;;;;4.64;100.00;100980.50;4968980;28;20042;-91
2021/12/20 05:20:09;;;;;;;22.23;8.68;;;;;;;4.32;100.00;100929.34;4938971;28;20023;-90
2021/12/20 05:22:35;;;;;;;18.85;8.57;;;;;;;4.50;100.00;100971.59;4934142;29;20031;-90
2021/12/20 05:25:04;;;;;;;21.25;8.57;;;;;;;4.33;100.00;100946.91;4953139;28;20034;-90
2021/12/20 05:27:29;;;;;;;22.52;11.20;;;;;;;4.38;100.00;100952.22;4968486;28;20422;-90
2021/12/20 05:29:56;;;;;;;24.67;10.27;;;;;;;4.53;100.00;100962.84;4953443;28;20030;-90
2021/12/20 05:32:21;;;;;;;18.02;7.63;;;;;;;4.45;100.00;100959.28;4947012;29;20034;-90
2021/12/20 05:34:47;;;;;;;18.00;9.63;;;;;;;4.50;100.00;100968.97;4970792;28;20482;-90
2021/12/20 05:37:15;;;;;;;16.13;8.80;;;;;;;4.51;100.00;100973.38;4987682;28;20038;-90
2021/12/20 05:39:41;;;;;;;15.57;8.45;;;;;;;4.42;100.00;100973.31;4983665;28;20023;-90
2021/12/20 05:42:07;;;;;;;17.10;8.50;;;;;;;4.38;100.00;100966.25;4975171;28;20030;-90
2021/12/20 05:44:33;;;;;;;22.35;8.18;;;;;;;4.48;100.00;100983.88;4974224;28;20060;-90
2021/12/20 05:46:58;;;;;;;17.00;8.38;;;;;;;4.36;100.00;100941.66;4957761;28;20510;-90
2021/12/20 05:49:24;;;;;;;22.13;9.60;;;;;;;4.44;100.00;100961.03;4957605;28;20105;-90
2021/12/20 05:51:49;;;;;;;25.40;10.40;;;;;;;4.59;100.00;100997.13;4974750;28;20030;-90
2021/12/20 05:54:15;;;;;;;23.80;10.32;;;;;;;4.50;100.00;101008.47;4973182;28;20118;-90
2021/12/20 05:56:41;;;;;;;18.73;9.88;;;;;;;4.45;100.00;100965.41;4975329;28;20479;-90
2021/12/20 05:59:06;;;;;;;23.75;10.85;;;;;;;4.51;100.00;100991.81;4952520;28;20027;-90
2021/12/20 06:01:32;;;;;;;23.95;11.55;;;;;;;4.43;100.00;100976.81;4968949;28;20433;-90
2021/12/20 06:03:57;;;;;;;24.08;10.57;;;;;;;4.62;100.00;101005.06;4969273;28;20035;-90
2021/12/20 06:06:23;;;;;;;20.27;9.23;;;;;;;4.43;100.00;100953.13;4939578;28;20033;-90
2021/12/20 06:08:49;;;;;;;27.30;11.02;;;;;;;4.59;100.00;100997.13;4973635;28;20034;-90
2021/12/20 06:11:14;;;;;;;22.85;10.82;;;;;;;4.41;100.00;100976.81;4957282;28;20525;-90
2021/12/20 06:13:39;;;;;;;22.92;11.25;;;;;;;4.52;100.00;100996.22;4953354;28;20090;-90
2021/12/20 06:16:05;;;;;;;21.50;11.73;;;;;;;4.26;100.00;100966.16;4956323;28;20042;-90
2021/12/20 06:18:30;;;;;;;20.42;11.13;;;;;;;4.46;100.00;101000.56;4971719;28;20541;-90
2021/12/20 06:20:56;;;;;;;21.30;9.55;;;;;;;4.44;100.00;100986.47;4973237;28;20022;-90
2021/12/20 06:23:21;;;;;;;19.45;10.05;;;;;;;4.61;100.00;101017.34;4972881;28;20418;-90
2021/12/20 06:25:47;;;;;;;23.80;9.75;;;;;;;4.51;100.00;100999.72;4957932;28;20037;-90
2021/12/20 06:28:12;;;;;;;18.30;9.18;;;;;;;4.45;100.00;100978.59;4973196;28;20490;-90
2021/12/20 06:30:38;;;;;;;19.40;10.27;;;;;;;4.57;100.00;101001.50;4972968;28;20027;-90
2021/12/20 06:33:03;;;;;;;26.00;11.48;;;;;;;4.59;100.00;101012.94;4973285;28;20027;-90
2021/12/20 06:35:29;;;;;;;17.77;9.23;;;;;;;4.10;100.00;100937.97;4977057;28;20035;-90
2021/12/20 06:38:01;;;;;;;19.50;9.55;;;;;;;4.33;100.00;100967.97;4955743;28;20150;-90
2021/12/20 06:40:29;;;;;;;23.50;10.53;;;;;;;4.54;100.00;100993.56;4957449;28;20026;-90
2021/12/20 06:42:55;;;;;;;18.25;9.32;;;;;;;4.67;100.00;101006.84;4956962;28;20027;-90
2021/12/20 06:45:20;;;;;;;22.55;10.15;;;;;;;4.54;100.00;100991.84;4957349;28;20030;-90
2021/12/20 06:47:46;;;;;;;20.15;10.25;;;;;;;4.54;100.00;100986.56;4973379;28;20467;-91
2021/12/20 06:50:12;;;;;;;19.38;10.73;;;;;;;4.71;100.00;101013.03;4956602;28;20157;-90
2021/12/20 06:52:37;;;;;;;20.83;10.20;;;;;;;4.82;100.00;101022.78;4957120;28;20026;-90
2021/12/20 06:55:07;;;;;;;17.27;9.48;;;;;;;4.77;100.00;101016.59;4992195;28;20045;-90
2021/12/20 06:57:32;;;;;;;27.13;11.70;;;;;;;4.57;100.00;100994.50;4970100;28;20117;-90
2021/12/20 07:00:00;;;;;;;22.73;11.02;;;;;;;4.60;100.00;100999.78;4972478;28;20137;-90
2021/12/20 07:02:25;;;;;;;25.75;13.07;;;;;;;4.77;100.00;101023.59;4972107;28;20039;-90
2021/12/20 07:04:50;;;;;;;28.63;13.55;;;;;;;4.64;100.00;101005.94;4955936;28;20031;-90
2021/12/20 07:07:16;;;;;;;33.13;14.77;;;;;;;4.69;100.00;101014.78;4963561;28;20475;-90
2021/12/20 07:09:41;;;;;;;29.90;13.25;;;;;;;4.58;100.00;101001.50;4936746;29;20069;-90
2021/12/20 07:12:07;;;;;;;21.55;10.52;;;;;;;4.80;100.00;101032.41;4952691;28;20033;-90
2021/12/20 07:14:33;;;;;;;20.13;11.27;;;;;;;4.62;100.00;101010.31;4949818;29;20027;-90
2021/12/20 07:16:59;;;;;;;21.08;10.50;;;;;;;4.50;100.00;100978.66;4950779;28;20110;-90
2021/12/20 07:19:24;;;;;;;20.77;10.65;;;;;;;4.20;100.00;100959.97;4944065;28;20032;-90
2021/12/20 07:21:50;;;;;;;18.45;10.55;;;;;;;4.54;100.00;101015.53;4943355;28;20051;-90
2021/12/20 07:24:15;;;;;;;21.90;11.00;;;;;;;4.68;100.00;101032.31;4936299;29;20060;-90
2021/12/20 07:26:42;;;;;;;18.75;9.77;;;;;;;4.73;100.00;101040.25;4953174;29;20023;-90
2021/12/20 07:29:07;;;;;;;20.08;11.13;;;;;;;4.69;100.00;101036.75;4949646;29;20142;-90
2021/12/20 07:31:33;;;;;;;21.17;11.27;;;;;;;4.79;100.00;101042.94;4929766;28;20158;-90
2021/12/20 07:33:59;;;;;;;26.08;11.48;;;;;;;4.79;100.00;101054.38;4963808;28;20034;-90
2021/12/20 07:36:25;;;;;;;31.27;14.32;;;;;;;4.57;100.00;101010.28;4951546;28;20023;-90
2021/12/20 07:38:51;;;;;;;36.30;18.25;;;;;;;4.79;100.00;101038.56;4951734;29;20078;-90
2021/12/20 07:41:21;;;;;;;141.80;58.67;;;;;;;4.64;100.00;101006.84;4934541;29;20435;-90
2021/12/20 07:43:48;;;;;;;72.72;34.40;;;;;;;4.78;100.00;101031.53;4951195;29;20126;-90
2021/12/20 07:46:17;;;;;;;29.85;14.63;;;;;;;4.73;100.00;101029.72;4952165;28;20818;-90
2021/12/20 07:48:46;;;;;;;21.30;10.23;;;;;;;4.48;100.00;100981.22;4951991;29;20026;-90
2021/12/20 07:51:12;;;;;;;22.08;11.63;;;;;;;4.92;100.00;101045.69;4952474;29;20046;-90
2021/12/20 07:53:37;;;;;;;23.58;13.70;;;;;;;4.73;100.00;101012.16;4950383;29;20027;-90
2021/12/20 07:56:04;;;;;;;18.77;11.15;;;;;;;4.77;100.00;101013.06;4952031;29;20023;-91
2021/12/20 07:58:30;;;;;;;20.52;10.07;;;;;;;4.87;100.00;101026.31;4935164;29;20031;-90
2021/12/20 08:00:55;;;;;;;17.95;8.65;;;;;;;4.79;100.00;101022.75;4936046;29;20028;-90
2021/12/20 08:03:21;;;;;;;19.55;9.18;;;;;;;4.87;100.00;101042.13;4935443;28;20023;-90
2021/12/20 08:05:47;;;;;;;18.20;9.38;;;;;;;4.79;100.00;101038.56;4951617;29;20035;-90
2021/12/20 08:08:12;;;;;;;12.25;8.45;;;;;;;4.59;100.00;100989.22;4950396;28;20262;-90
2021/12/20 08:10:38;;;;;;;13.95;7.78;;;;;;;4.97;100.00;101041.31;4951109;28;20078;-90
2021/12/20 08:13:03;;;;;;;13.68;8.48;;;;;;;4.82;100.00;101035.06;4971035;28;20026;-90
2021/12/20 08:15:29;;;;;;;17.27;8.02;;;;;;;4.72;100.00;101005.13;4954461;28;20481;-90
2021/12/20 08:17:56;;;;;;;17.67;8.95;;;;;;;5.01;100.00;101045.72;4972023;28;20398;-90
2021/12/20 08:20:24;;;;;;;13.50;8.25;;;;;;;4.99;100.00;101044.84;4954740;28;20105;-90
2021/12/20 08:22:49;;;;;;;13.30;7.43;;;;;;;4.93;100.00;101036.91;4954184;28;20046;-90
2021/12/20 08:25:18;;;;;;;13.45;7.72;;;;;;;5.08;100.00;101047.53;4970209;28;20445;-90
2021/12/20 08:27:46;;;;;;;31.15;8.48;;;;;;;5.09;100.00;101049.28;4970529;28;20034;-90
2021/12/20 08:30:12;;;;;;;17.08;8.35;;;;;;;4.91;100.00;101019.31;4971263;28;20478;-90
2021/12/20 08:32:39;;;;;;;16.77;8.77;;;;;;;4.50;100.00;100945.25;4970053;28;20050;-90
2021/12/20 08:35:07;;;;;;;21.13;9.98;;;;;;;4.86;100.00;101003.44;4954384;28;20026;-90
2021/12/20 08:37:33;;;;;;;17.70;8.88;;;;;;;5.10;100.00;101032.63;4971374;28;20505;-90
2021/12/20 08:39:59;;;;;;;16.75;8.35;;;;;;;4.60;100.00;100952.34;4974137;28;20634;-90
2021/12/20 08:42:24;;;;;;;16.35;6.78;;;;;;;5.07;100.00;101058.09;4966107;28;20027;-91
2021/12/20 08:44:51;;;;;;;18.70;7.85;;;;;;;4.96;100.00;101014.94;4967864;28;20061;-91
2021/12/20 08:47:17;;;;;;;13.52;7.40;;;;;;;5.20;100.00;101041.44;4954530;28;20037;-92
2021/12/20 08:49:43;;;;;;;15.80;8.45;;;;;;;4.82;100.00;100979.72;4970183;28;20376;-91
2021/12/20 08:52:10;;;;;;;22.63;9.23;;;;;;;5.32;100.00;101065.25;4969961;28;20026;-91
2021/12/20 08:54:35;;;;;;;19.08;9.13;;;;;;;5.20;100.00;101046.72;4972943;28;20482;-91
2021/12/20 08:57:01;;;;;;;18.17;9.27;;;;;;;5.36;100.00;101059.09;4956111;28;20031;-91
2021/12/20 08:59:27;;;;;;;19.48;8.93;;;;;;;5.18;100.00;101012.44;4970754;28;20060;-91
2021/12/20 09:01:53;;;;;;;12.77;7.28;;;;;;;5.30;100.00;101048.53;4971255;28;20030;-91
2021/12/20 09:04:18;;;;;;;22.02;10.15;;;;;;;5.35;100.00;101050.31;4969830;28;20019;-91
2021/12/20 09:06:45;;;;;;;19.00;9.52;;;;;;;5.54;100.00;101058.31;4953875;28;20097;-90
2021/12/20 09:09:13;;;;;;;20.60;10.02;;;;;;;5.64;100.00;101070.66;4966497;28;20490;-92
2021/12/20 09:11:40;;;;;;;18.85;8.73;;;;;;;5.55;100.00;101052.16;4973671;28;20113;-90
2021/12/20 09:14:06;;;;;;;18.42;9.40;;;;;;;5.57;100.00;101047.78;4970912;28;20525;-91
2021/12/20 09:16:32;;;;;;;18.95;8.90;;;;;;;5.61;100.00;101054.81;4974664;28;20027;-91
2021/12/20 09:18:57;;;;;;;23.60;11.32;;;;;;;5.69;100.00;101047.81;4974293;28;20027;-90
2021/12/20 09:21:23;;;;;;;19.58;9.73;;;;;;;5.30;100.00;100978.19;4957699;28;20055;-91
2021/12/20 09:23:49;;;;;;;17.50;10.07;;;;;;;5.48;99.70;101023.97;4974785;28;20027;-92
2021/12/20 09:26:15;;;;;;;20.13;9.65;;;;;;;5.92;98.90;101062.00;4959881;28;20037;-90
2021/12/20 09:28:41;;;;;;;17.60;9.30;;;;;;;5.76;98.25;101046.97;4974181;28;20023;-91
2021/12/20 09:31:09;;;;;;;37.03;19.95;;;;;;;5.40;99.09;100982.63;4959788;28;20461;-92
2021/12/20 09:33:35;;;;;;;28.05;12.32;;;;;;;6.05;98.65;101063.78;4967028;28;20054;-91
2021/12/20 09:36:04;;;;;;;21.48;11.20;;;;;;;6.02;98.12;101074.34;4973606;28;20128;-91
2021/12/20 09:38:31;;;;;;;17.15;10.10;;;;;;;6.02;98.03;101050.59;4973740;28;20023;-90
2021/12/20 09:44:01;;;;;;;26.00;16.52;;;;;;;6.15;98.54;101069.09;4975158;28;20026;-91
2021/12/20 09:46:29;;;;;;;24.15;10.25;;;;;;;5.97;98.32;101012.72;4972495;28;20041;-91
2021/12/20 09:48:55;;;;;;;19.17;10.43;;;;;;;6.41;97.55;101066.47;4958009;28;20113;-91
2021/12/20 09:51:21;;;;;;;22.42;9.60;;;;;;;6.34;97.86;101070.03;4972306;28;20029;-92
2021/12/20 09:53:47;;;;;;;20.35;9.35;;;;;;;6.39;97.36;101068.28;4957578;28;20390;-90
2021/12/20 09:56:14;;;;;;;18.10;10.07;;;;;;;5.88;96.77;100988.97;4957828;28;20034;-91
2021/12/20 09:58:46;;;;;;;16.83;9.15;;;;;;;5.98;96.85;101003.94;4957125;28;20085;-90
2021/12/20 10:01:15;;;;;;;23.88;12.77;;;;;;;6.34;96.69;101068.25;4956569;28;20041;-90
2021/12/20 10:03:43;;;;;;;17.00;10.77;;;;;;;6.51;96.95;101073.53;4956029;28;20038;-90
2021/12/20 10:06:08;;;;;;;18.77;9.50;;;;;;;6.53;96.67;101063.84;4956043;28;20026;-90
2021/12/20 10:08:37;;;;;;;18.98;7.50;;;;;;;6.40;94.98;101030.38;4971701;28;20387;-89
2021/12/20 10:11:16;;;;;;;17.60;10.52;;;;;;;6.42;95.15;101049.78;4972688;28;20026;-89
2021/12/20 10:13:42;;;;;;;17.17;8.15;;;;;;;6.45;95.32;101070.91;4969515;28;20394;-89
2021/12/20 10:16:19;;;;;;;17.85;8.43;;;;;;;6.57;95.32;101063.00;4974855;28;20030;-89
2021/12/20 10:18:46;;;;;;;16.23;8.10;;;;;;;6.70;96.22;101067.41;4956071;28;20026;-89
2021/12/20 10:21:11;;;;;;;16.42;8.63;;;;;;;6.68;95.60;101063.88;4973244;28;20022;-89
2021/12/20 10:23:48;;;;;;;22.55;8.75;;;;;;;6.65;95.34;101058.59;4961025;28;20502;-89
2021/12/20 10:26:21;;;;;;;14.20;8.02;;;;;;;6.90;94.82;101060.34;4970230;28;20031;-89
2021/12/20 10:28:51;;;;;;;15.02;7.63;;;;;;;6.89;94.56;101057.66;4954261;29;20028;-89
2021/12/20 10:31:22;;;;;;;16.98;7.90;;;;;;;6.84;94.76;101055.03;4959201;28;20069;-90
2021/12/20 10:34:02;;;;;;;15.95;8.18;;;;;;;6.87;95.42;101060.31;4966463;28;20038;-90
2021/12/20 10:36:28;;;;;;;16.50;7.82;;;;;;;7.02;95.00;101070.88;4972515;28;20034;-89
2021/12/20 10:39:00;;;;;;;15.25;7.57;;;;;;;6.95;94.86;101069.16;4979726;28;20023;-89
2021/12/20 10:41:34;;;;;;;18.35;8.07;;;;;;;7.10;95.13;101058.50;4972992;28;20085;-89
2021/12/20 10:44:03;;;;;;;17.33;7.40;;;;;;;7.07;93.16;101066.47;4953362;28;20030;-89
2021/12/20 10:46:33;;;;;;;17.48;7.85;;;;;;;7.22;92.07;101055.84;4972538;28;20054;-89
2021/12/20 10:49:03;;;;;;;16.17;8.32;;;;;;;7.06;91.85;101010.91;4984029;28;20026;-89
2021/12/20 10:51:44;;;;;;;15.80;8.13;;;;;;;7.05;91.33;101011.81;4974285;28;20034;-89
2021/12/20 10:54:16;;;;;;;15.13;8.13;;;;;;;7.28;90.52;101039.94;4971606;28;20046;-89
2021/12/20 10:57:05;;;;;;;18.98;7.95;;;;;;;7.33;90.44;101024.94;4958662;28;20069;-89
2021/12/20 10:59:37;;;;;;;13.20;7.38;;;;;;;7.24;91.13;101009.09;4936980;29;20054;-89
2021/12/20 11:04:56;;;;;;;15.80;7.40;;;;;;;7.54;91.47;101019.59;4973301;28;20117;-89
2021/12/20 11:10:02;;;;;;;16.63;8.38;;;;;;;8.08;90.74;101021.03;4974631;28;20093;-89
2021/12/20 11:12:31;;;;;;;19.00;8.27;;;;;;;8.43;89.53;101026.13;4974324;28;20038;-89
2021/12/20 11:15:03;;;;;;;18.45;7.85;;;;;;;8.40;86.45;100999.63;4972944;28;20034;-89
2021/12/20 11:17:30;;;;;;;17.58;9.00;;;;;;;8.38;86.00;101007.59;4956658;28;20427;-89
2021/12/20 11:20:00;;;;;;;20.15;8.40;;;;;;;8.21;86.63;101003.28;4972305;28;20118;-89
2021/12/20 11:22:31;;;;;;;17.23;7.93;;;;;;;8.34;86.73;101028.81;4973250;28;20117;-89
2021/12/20 11:25:00;;;;;;;13.57;7.80;;;;;;;8.36;87.55;101021.75;4959063;28;20547;-89
2021/12/20 11:27:34;;;;;;;23.48;10.18;;;;;;;8.44;87.22;101027.88;4968910;28;20027;-89
2021/12/20 11:30:05;;;;;;;20.20;9.93;;;;;;;8.38;86.78;101012.00;4960627;28;20027;-89
2021/12/20 11:32:33;;;;;;;23.58;9.55;;;;;;;8.24;86.56;101008.59;4970640;28;20023;-89